createdAt,value
2022-09-15T00:01:08.187Z,22.52
2022-09-15T00:03:36.930Z,22.52
2022-09-15T00:06:04.462Z,22.49
2022-09-15T00:08:32.170Z,22.58
2022-09-15T00:11:10.048Z,22.58
2022-09-15T00:13:38.788Z,22.66
2022-09-15T00:16:06.327Z,22.73
2022-09-15T00:18:35.122Z,22.72
2022-09-15T00:21:09.681Z,22.66
2022-09-15T00:23:37.443Z,22.68
2022-09-15T00:26:10.058Z,22.65
2022-09-15T00:28:37.811Z,22.61
2022-09-15T00:31:12.108Z,22.59
2022-09-15T00:33:39.492Z,22.62
2022-09-15T00:36:11.836Z,22.69
2022-09-15T00:38:39.327Z,22.93
2022-09-15T00:41:08.648Z,22.98
2022-09-15T00:44:04.325Z,23.03
2022-09-15T00:46:41.029Z,23.07
2022-09-15T00:49:36.038Z,23.09
2022-09-15T00:52:07.463Z,23.09
2022-09-15T00:54:37.783Z,23.14
2022-09-15T00:57:14.376Z,23.13
2022-09-15T00:59:42.750Z,23.14
2022-09-15T01:02:33.078Z,23.11
2022-09-15T01:05:03.058Z,23.10
2022-09-15T01:08:06.070Z,23.06
2022-09-15T01:10:36.722Z,23.09
2022-09-15T01:13:10.817Z,23.09
2022-09-15T01:16:10.640Z,23.02
2022-09-15T01:18:37.774Z,22.96
2022-09-15T01:21:14.683Z,22.96
2022-09-15T01:24:06.639Z,22.91
2022-09-15T01:26:39.419Z,22.91
2022-09-15T01:29:30.521Z,22.92
2022-09-15T01:32:33.231Z,22.83
2022-09-15T01:35:28.117Z,22.85
2022-09-15T01:38:04.299Z,22.82
2022-09-15T01:40:37.620Z,22.82
2022-09-15T01:43:09.149Z,22.75
2022-09-15T01:45:39.355Z,22.73
2022-09-15T01:48:08.958Z,22.68
2022-09-15T01:50:43.077Z,22.66
2022-09-15T01:53:16.690Z,22.62
2022-09-15T01:56:09.848Z,22.61
2022-09-15T01:58:38.789Z,22.61
2022-09-15T02:01:14.098Z,22.49
2022-09-15T02:03:44.696Z,22.55
2022-09-15T02:06:38.953Z,22.47
2022-09-15T02:09:12.903Z,22.45
2022-09-15T02:11:52.236Z,22.38
2022-09-15T02:14:39.345Z,22.44
2022-09-15T02:17:10.727Z,22.38
2022-09-15T02:19:44.055Z,22.38
2022-09-15T02:22:28.384Z,22.35
2022-09-15T02:25:12.599Z,22.33
2022-09-15T02:27:52.716Z,22.30
2022-09-15T02:30:21.410Z,22.28
2022-09-15T02:33:11.883Z,22.34
2022-09-15T02:35:40.272Z,22.41
2022-09-15T02:38:10.029Z,22.43
2022-09-15T02:40:41.371Z,22.40
2022-09-15T02:43:12.462Z,22.44
2022-09-15T02:45:39.782Z,22.44
2022-09-15T02:48:09.774Z,22.47
2022-09-15T02:50:37.751Z,22.52
2022-09-15T02:53:04.957Z,22.54
2022-09-15T02:55:33.640Z,22.51
2022-09-15T02:58:00.806Z,22.49
2022-09-15T03:00:28.629Z,22.49
2022-09-15T03:02:56.272Z,22.52
2022-09-15T03:05:26.017Z,22.44
2022-09-15T03:07:55.743Z,22.43
2022-09-15T03:10:24.766Z,22.41
2022-09-15T03:12:53.702Z,22.43
2022-09-15T03:15:24.614Z,22.40
2022-09-15T03:17:52.797Z,22.31
2022-09-15T03:20:23.451Z,22.24
2022-09-15T03:22:52.872Z,22.18
2022-09-15T03:25:20.905Z,22.18
2022-09-15T03:27:48.093Z,22.22
2022-09-15T03:30:15.655Z,22.30
2022-09-15T03:32:42.727Z,22.18
2022-09-15T03:35:10.168Z,22.25
2022-09-15T03:37:37.431Z,22.21
2022-09-15T03:40:05.332Z,22.04
2022-09-15T03:42:32.756Z,21.96
2022-09-15T03:44:59.911Z,21.86
2022-09-15T03:47:27.012Z,21.58
2022-09-15T03:49:55.093Z,21.53
2022-09-15T03:52:22.259Z,21.53
2022-09-15T03:54:49.398Z,21.35
2022-09-15T03:57:16.466Z,21.21
2022-09-15T03:59:43.838Z,21.08
2022-09-15T04:02:11.215Z,21.01
2022-09-15T04:04:38.459Z,20.85
2022-09-15T04:07:05.691Z,20.88
2022-09-15T04:09:33.271Z,20.88
2022-09-15T04:12:00.689Z,20.93
2022-09-15T04:14:27.949Z,20.91
2022-09-15T04:16:54.993Z,20.85
2022-09-15T04:19:22.131Z,20.84
2022-09-15T04:21:49.247Z,20.94
2022-09-15T04:24:16.352Z,20.85
2022-09-15T04:26:43.954Z,20.85
2022-09-15T04:29:16.594Z,20.79
2022-09-15T04:31:43.839Z,20.72
2022-09-15T04:34:11.291Z,20.76
2022-09-15T04:36:38.614Z,20.90
2022-09-15T04:39:06.666Z,20.88
2022-09-15T04:41:35.091Z,20.87
2022-09-15T04:44:02.442Z,20.72
2022-09-15T04:46:29.617Z,20.52
2022-09-15T04:48:56.994Z,20.77
2022-09-15T04:51:24.995Z,20.73
2022-09-15T04:53:52.330Z,20.63
2022-09-15T04:56:21.840Z,20.64
2022-09-15T04:59:02.459Z,20.37
2022-09-15T05:01:32.833Z,20.53
2022-09-15T05:04:03.924Z,20.52
2022-09-15T05:06:32.227Z,20.74
2022-09-15T05:08:59.649Z,20.83
2022-09-15T05:11:28.393Z,20.81
2022-09-15T05:13:55.558Z,20.91
2022-09-15T05:16:25.144Z,21.02
2022-09-15T05:18:54.531Z,21.04
2022-09-15T05:21:23.133Z,21.08
2022-09-15T05:23:54.105Z,21.15
2022-09-15T05:26:24.292Z,21.11
2022-09-15T05:28:51.741Z,21.39
2022-09-15T05:31:25.225Z,21.59
2022-09-15T05:33:53.398Z,21.72
2022-09-15T05:36:24.967Z,21.87
2022-09-15T05:38:58.547Z,22.03
2022-09-15T05:41:27.758Z,22.00
2022-09-15T05:44:01.279Z,21.97
2022-09-15T05:46:29.587Z,21.89
2022-09-15T05:48:58.647Z,22.00
2022-09-15T05:51:25.957Z,22.07
2022-09-15T05:53:53.159Z,22.08
2022-09-15T05:56:20.634Z,22.07
2022-09-15T05:58:48.703Z,22.07
2022-09-15T06:01:21.635Z,22.13
2022-09-15T06:03:49.224Z,22.06
2022-09-15T06:06:16.871Z,22.10
2022-09-15T06:08:50.082Z,22.16
2022-09-15T06:11:23.008Z,22.25
2022-09-15T06:13:50.322Z,22.21
2022-09-15T06:16:19.998Z,22.34
2022-09-15T06:18:48.884Z,22.37
2022-09-15T06:21:23.830Z,22.52
2022-09-15T06:23:55.033Z,22.58
2022-09-15T06:26:23.699Z,22.73
2022-09-15T06:28:56.248Z,22.79
2022-09-15T06:31:25.250Z,22.85
2022-09-15T06:33:54.164Z,22.99
2022-09-15T06:36:26.115Z,23.06
2022-09-15T06:38:53.894Z,23.13
2022-09-15T06:41:52.937Z,23.17
2022-09-15T06:45:22.636Z,23.28
2022-09-15T06:48:24.436Z,23.38
2022-09-15T06:50:54.968Z,23.28
2022-09-15T06:53:22.205Z,23.24
2022-09-15T06:55:49.929Z,23.30
2022-09-15T06:58:17.297Z,23.53
2022-09-15T07:00:44.549Z,23.58
2022-09-15T07:03:11.825Z,23.74
2022-09-15T07:05:39.156Z,23.86
2022-09-15T07:08:12.183Z,23.99
2022-09-15T07:10:42.210Z,24.22
2022-09-15T07:13:09.292Z,24.41
2022-09-15T07:15:39.941Z,24.64
2022-09-15T07:18:07.342Z,24.77
2022-09-15T07:20:35.284Z,24.71
2022-09-15T07:23:02.398Z,24.59
2022-09-15T07:25:29.626Z,24.50
2022-09-15T07:27:56.702Z,24.47
2022-09-15T07:30:24.014Z,24.50
2022-09-15T07:32:52.794Z,24.50
2022-09-15T07:35:22.569Z,24.57
2022-09-15T07:37:49.849Z,24.57
2022-09-15T07:40:17.265Z,24.87
2022-09-15T07:42:45.066Z,24.80
2022-09-15T07:45:12.320Z,24.90
2022-09-15T07:47:39.508Z,24.96
2022-09-15T07:50:07.540Z,24.96
2022-09-15T07:52:34.713Z,25.12
2022-09-15T07:55:01.755Z,25.19
2022-09-15T07:57:32.198Z,25.66
2022-09-15T07:59:59.524Z,26.31
2022-09-15T08:02:29.152Z,26.89
2022-09-15T08:04:58.641Z,27.27
2022-09-15T08:07:26.429Z,27.26
2022-09-15T08:09:56.915Z,27.34
2022-09-15T08:12:30.910Z,27.07
2022-09-15T08:14:58.972Z,26.82
2022-09-15T08:22:17.569Z,27.27
2022-09-15T08:29:09.200Z,27.52
2022-09-15T08:31:38.875Z,27.78
2022-09-15T08:34:08.462Z,27.76
2022-09-15T08:36:37.432Z,27.75
2022-09-15T08:39:05.205Z,27.52
2022-09-15T08:41:48.335Z,27.48
2022-09-15T08:44:44.862Z,27.39
2022-09-15T08:47:35.828Z,27.58
2022-09-15T08:50:29.918Z,27.38
2022-09-15T08:53:12.850Z,27.23
2022-09-15T08:55:49.940Z,27.18
2022-09-15T08:58:35.843Z,27.18
2022-09-15T09:09:49.752Z,27.06
2022-09-15T09:12:41.160Z,27.49
2022-09-15T09:15:20.011Z,27.69
2022-09-15T09:18:14.580Z,27.54
2022-09-15T09:21:04.948Z,27.31
2022-09-15T09:23:43.764Z,27.27
2022-09-15T09:26:12.938Z,27.42
2022-09-15T09:28:55.587Z,27.30
2022-09-15T09:31:28.531Z,27.23
2022-09-15T09:35:00.069Z,27.41
2022-09-15T09:37:53.475Z,27.65
2022-09-15T09:40:21.105Z,27.66
2022-09-15T09:42:48.905Z,27.58
2022-09-15T09:45:18.748Z,27.70
2022-09-15T09:47:46.495Z,27.75
2022-09-15T09:50:45.378Z,27.58
2022-09-15T09:54:29.376Z,27.61
2022-09-15T09:57:31.003Z,27.34
2022-09-15T09:59:59.771Z,27.28
2022-09-15T10:02:28.023Z,27.31
2022-09-15T10:05:16.110Z,27.55
2022-09-15T10:07:43.945Z,27.78
2022-09-15T10:10:23.855Z,27.62
2022-09-15T10:12:56.491Z,27.62
2022-09-15T10:19:56.641Z,27.93
2022-09-15T10:22:37.069Z,27.75
2022-09-15T10:25:39.474Z,27.82
2022-09-15T10:29:03.783Z,28.04
2022-09-15T10:31:32.803Z,28.12
2022-09-15T10:34:28.241Z,28.33
2022-09-15T10:37:06.260Z,28.16
2022-09-15T10:44:20.781Z,28.30
2022-09-15T10:51:27.536Z,28.16
2022-09-15T10:54:03.611Z,28.13
2022-09-15T10:56:35.686Z,28.17
2022-09-15T10:59:17.613Z,28.21
2022-09-15T11:02:02.108Z,28.25
2022-09-15T11:04:42.227Z,28.34
2022-09-15T11:07:31.922Z,28.48
2022-09-15T11:10:27.723Z,28.39
2022-09-15T11:13:12.308Z,28.51
2022-09-15T11:15:55.154Z,28.64
2022-09-15T11:19:37.535Z,28.52
2022-09-15T11:22:38.547Z,28.54
2022-09-15T11:25:31.886Z,28.39
2022-09-15T11:28:20.152Z,28.45
2022-09-15T11:30:58.535Z,28.43
2022-09-15T11:33:32.750Z,28.44
2022-09-15T11:36:11.331Z,28.41
2022-09-15T11:43:05.448Z,28.54
2022-09-15T11:45:40.655Z,28.78
2022-09-15T11:49:13.934Z,28.72
2022-09-15T11:52:19.108Z,28.65
2022-09-15T11:54:53.616Z,28.76
2022-09-15T11:57:27.366Z,28.88
2022-09-15T12:00:03.062Z,28.82
2022-09-15T12:02:41.605Z,28.87
2022-09-15T12:05:34.642Z,28.67
2022-09-15T12:08:13.623Z,28.69
2022-09-15T12:10:52.784Z,28.71
2022-09-15T12:13:25.006Z,28.79
2022-09-15T12:15:54.576Z,28.69
2022-09-15T12:18:54.289Z,28.62
2022-09-15T12:21:37.465Z,28.78
2022-09-15T12:24:30.036Z,28.82
2022-09-15T12:27:00.962Z,28.81
2022-09-15T12:29:27.996Z,28.82
2022-09-15T12:32:18.650Z,28.82
2022-09-15T12:35:02.324Z,28.76
2022-09-15T12:37:45.171Z,28.60
2022-09-15T12:40:26.469Z,28.55
2022-09-15T12:42:54.547Z,28.55
2022-09-15T12:45:36.303Z,28.48
2022-09-15T12:48:26.497Z,28.47
2022-09-15T12:50:57.415Z,28.41
2022-09-15T12:53:31.840Z,28.45
2022-09-15T12:56:02.792Z,28.34
2022-09-15T12:58:39.634Z,28.39
2022-09-15T13:01:19.077Z,28.44
2022-09-15T13:03:49.762Z,28.41
2022-09-15T13:06:35.345Z,28.30
2022-09-15T13:09:02.452Z,28.33
2022-09-15T13:11:38.321Z,28.27
2022-09-15T13:14:14.767Z,28.20
2022-09-15T13:16:44.455Z,28.13
2022-09-15T13:19:24.417Z,28.03
2022-09-15T13:21:58.559Z,27.81
2022-09-15T13:24:50.750Z,27.33
2022-09-15T13:27:32.823Z,27.01
2022-09-15T13:30:25.993Z,26.48
2022-09-15T13:33:14.632Z,25.78
2022-09-15T13:39:05.736Z,24.53
2022-09-15T13:41:57.725Z,24.22
2022-09-15T13:44:47.825Z,24.09
2022-09-15T13:47:37.970Z,23.96
2022-09-15T13:50:14.382Z,24.04
2022-09-15T13:53:03.148Z,24.05
2022-09-15T13:55:39.380Z,24.05
2022-09-15T14:01:02.849Z,24.09
2022-09-15T14:03:45.739Z,24.01
2022-09-15T14:06:36.203Z,23.88
2022-09-15T14:09:12.748Z,24.02
2022-09-15T14:11:41.355Z,24.10
2022-09-15T14:14:31.893Z,24.08
2022-09-15T14:16:59.153Z,24.16
2022-09-15T14:19:33.702Z,24.30
2022-09-15T14:22:16.155Z,24.36
2022-09-15T14:24:43.587Z,24.30
2022-09-15T14:27:11.740Z,24.32
2022-09-15T14:29:40.633Z,24.26
2022-09-15T14:32:28.790Z,24.40
2022-09-15T14:34:59.679Z,24.39
2022-09-15T14:37:28.773Z,24.53
2022-09-15T14:39:58.404Z,24.53
2022-09-15T14:42:32.370Z,24.50
2022-09-15T14:48:02.656Z,24.53
2022-09-15T14:50:33.829Z,24.52
2022-09-15T14:53:10.512Z,24.54
2022-09-15T14:55:49.711Z,24.60
2022-09-15T14:58:37.542Z,24.49
2022-09-15T15:01:16.466Z,24.22
2022-09-15T15:03:46.318Z,24.12
2022-09-15T15:06:29.381Z,24.23
2022-09-15T15:09:08.300Z,24.29
2022-09-15T15:11:38.935Z,24.33
2022-09-15T15:14:09.143Z,24.29
2022-09-15T15:16:37.230Z,24.26
2022-09-15T15:19:04.481Z,24.30
2022-09-15T15:21:43.645Z,24.27
2022-09-15T15:24:13.802Z,24.30
2022-09-15T15:26:47.665Z,24.30
2022-09-15T15:29:48.630Z,24.17
2022-09-15T15:32:22.063Z,24.09
2022-09-15T15:34:59.797Z,24.08
2022-09-15T15:37:29.781Z,23.98
2022-09-15T15:39:59.772Z,23.89
2022-09-15T15:42:29.964Z,23.90
2022-09-15T15:45:12.939Z,23.94
2022-09-15T15:47:43.209Z,23.75
2022-09-15T15:50:16.241Z,23.71
2022-09-15T15:52:44.029Z,23.64
2022-09-15T15:55:26.750Z,23.61
2022-09-15T15:57:55.455Z,23.58
2022-09-15T16:00:23.953Z,23.61
2022-09-15T16:02:51.623Z,23.54
2022-09-15T16:05:22.141Z,23.51
2022-09-15T16:07:51.713Z,23.44
2022-09-15T16:10:21.835Z,23.30
2022-09-15T16:12:49.382Z,23.26
2022-09-15T16:15:19.217Z,23.28
2022-09-15T16:17:47.283Z,23.19
2022-09-15T16:20:25.364Z,22.99
2022-09-15T16:22:52.480Z,22.82
2022-09-15T16:25:36.626Z,22.56
2022-09-15T16:28:04.714Z,22.43
2022-09-15T16:30:32.278Z,22.22
2022-09-15T16:32:59.708Z,22.03
2022-09-15T16:35:39.916Z,21.86
2022-09-15T16:38:07.927Z,21.72
2022-09-15T16:40:37.078Z,21.62
2022-09-15T16:43:09.187Z,21.58
2022-09-15T16:45:40.600Z,21.50
2022-09-15T16:48:09.847Z,21.43
2022-09-15T16:50:39.902Z,21.39
2022-09-15T16:53:14.381Z,21.32
2022-09-15T16:55:45.988Z,21.27
2022-09-15T16:58:14.059Z,21.29
2022-09-15T17:00:42.619Z,21.27
2022-09-15T17:03:15.584Z,21.25
2022-09-15T17:05:48.676Z,21.21
2022-09-15T17:08:17.677Z,21.20
2022-09-15T17:10:45.544Z,21.14
2022-09-15T17:13:22.307Z,21.10
2022-09-15T17:15:53.928Z,21.05
2022-09-15T17:18:22.001Z,21.01
2022-09-15T17:20:50.151Z,20.91
2022-09-15T17:23:36.817Z,20.85
2022-09-15T17:26:11.620Z,20.74
2022-09-15T17:28:39.647Z,20.62
2022-09-15T17:31:14.384Z,20.56
2022-09-15T17:33:41.731Z,20.47
2022-09-15T17:36:11.713Z,20.43
2022-09-15T17:38:41.088Z,20.36
2022-09-15T17:41:22.484Z,20.33
2022-09-15T17:43:49.937Z,20.26
2022-09-15T17:46:17.130Z,20.25
2022-09-15T17:48:44.304Z,20.25
2022-09-15T17:51:17.339Z,20.18
2022-09-15T17:53:47.902Z,20.15
2022-09-15T17:56:15.164Z,20.16
2022-09-15T17:58:43.140Z,20.14
2022-09-15T18:01:14.479Z,20.18
2022-09-15T18:03:44.083Z,20.24
2022-09-15T18:06:11.383Z,20.25
2022-09-15T18:08:38.750Z,20.18
2022-09-15T18:11:06.587Z,20.29
2022-09-15T18:13:34.188Z,20.33
2022-09-15T18:16:06.327Z,20.33
2022-09-15T18:18:34.190Z,20.37
2022-09-15T18:21:01.439Z,20.40
2022-09-15T18:23:29.572Z,20.40
2022-09-15T18:25:56.829Z,20.39
2022-09-15T18:28:23.986Z,20.45
2022-09-15T18:30:51.277Z,20.47
2022-09-15T18:33:21.441Z,20.45
2022-09-15T18:35:54.591Z,20.57
2022-09-15T18:38:23.029Z,20.47
2022-09-15T18:40:56.062Z,20.50
2022-09-15T18:43:25.289Z,20.45
2022-09-15T18:45:57.500Z,20.49
2022-09-15T18:48:24.696Z,20.49
2022-09-15T18:50:53.362Z,20.47
2022-09-15T18:53:20.720Z,20.40
2022-09-15T18:55:47.786Z,20.42
2022-09-15T18:58:15.030Z,20.40
2022-09-15T19:00:42.107Z,20.47
2022-09-15T19:03:09.595Z,20.37
2022-09-15T19:05:37.506Z,20.47
2022-09-15T19:08:04.831Z,20.52
2022-09-15T19:10:32.476Z,20.49
2022-09-15T19:12:59.556Z,20.42
2022-09-15T19:15:29.316Z,20.39
2022-09-15T19:17:56.657Z,20.50
2022-09-15T19:20:23.758Z,20.46
2022-09-15T19:22:51.677Z,20.46
2022-09-15T19:25:18.822Z,20.43
2022-09-15T19:27:47.851Z,20.47
2022-09-15T19:30:15.193Z,20.49
2022-09-15T19:32:42.874Z,20.43
2022-09-15T19:35:11.345Z,20.40
2022-09-15T19:37:40.508Z,20.32
2022-09-15T19:40:09.888Z,20.32
2022-09-15T19:42:38.842Z,20.32
2022-09-15T19:45:07.151Z,20.37
2022-09-15T19:47:35.319Z,20.33
2022-09-15T19:50:03.019Z,20.36
2022-09-15T19:52:30.119Z,20.33
2022-09-15T19:54:57.223Z,20.35
2022-09-15T19:57:24.750Z,20.33
2022-09-15T19:59:51.816Z,20.25
2022-09-15T20:02:19.984Z,20.24
2022-09-15T20:04:47.684Z,20.21
2022-09-15T20:07:14.820Z,20.22
2022-09-15T20:09:42.176Z,20.33
2022-09-15T20:12:09.254Z,20.26
2022-09-15T20:14:36.495Z,20.16
2022-09-15T20:17:04.506Z,20.25
2022-09-15T20:19:31.776Z,20.22
2022-09-15T20:21:58.887Z,20.08
2022-09-15T20:24:26.015Z,19.99
2022-09-15T20:26:55.546Z,19.89
2022-09-15T20:29:23.852Z,19.88
2022-09-15T20:31:50.963Z,19.88
2022-09-15T20:34:18.765Z,19.82
2022-09-15T20:36:46.017Z,19.81
2022-09-15T20:39:14.977Z,19.81
2022-09-15T20:41:46.712Z,19.78
2022-09-15T20:44:14.486Z,19.81
2022-09-15T20:46:41.880Z,19.85
2022-09-15T20:49:11.396Z,19.85
2022-09-15T20:51:38.477Z,19.89
2022-09-15T20:54:05.835Z,19.87
2022-09-15T20:56:35.305Z,19.82
2022-09-15T20:59:03.587Z,19.78
2022-09-15T21:04:27.843Z,19.75
2022-09-15T21:06:54.880Z,19.77
2022-09-15T21:09:22.027Z,19.74
2022-09-15T21:11:53.276Z,19.74
2022-09-15T21:14:20.670Z,19.81
2022-09-15T21:16:47.790Z,19.75
2022-09-15T21:19:15.817Z,19.82
2022-09-15T21:21:42.995Z,19.64
2022-09-15T21:24:10.194Z,19.61
2022-09-15T21:26:58.681Z,19.63
2022-09-15T21:29:27.625Z,19.60
2022-09-15T21:31:55.895Z,19.59
2022-09-15T21:34:23.953Z,19.59
2022-09-15T21:36:53.518Z,19.53
2022-09-15T21:39:21.439Z,19.57
2022-09-15T21:41:48.623Z,19.53
2022-09-15T21:44:15.841Z,19.51
2022-09-15T21:46:44.889Z,19.53
2022-09-15T21:49:11.980Z,19.63
2022-09-15T21:51:39.177Z,19.61
2022-09-15T21:54:06.326Z,19.60
2022-09-15T21:56:33.531Z,19.59
2022-09-15T21:59:02.610Z,19.51
2022-09-15T22:01:31.901Z,19.46
2022-09-15T22:04:10.406Z,19.46
2022-09-15T22:06:40.492Z,19.41
2022-09-15T22:09:10.798Z,19.47
2022-09-15T22:11:37.875Z,19.43
2022-09-15T22:14:08.284Z,19.39
2022-09-15T22:16:37.665Z,19.39
2022-09-15T22:19:06.984Z,19.34
2022-09-15T22:21:38.797Z,19.34
2022-09-15T22:24:07.192Z,19.34
2022-09-15T22:26:36.836Z,19.37
2022-09-15T22:29:04.945Z,19.32
2022-09-15T22:31:32.343Z,19.37
2022-09-15T22:33:59.513Z,19.36
2022-09-15T22:36:29.964Z,19.32
2022-09-15T22:39:07.774Z,19.36
2022-09-15T22:41:37.504Z,19.36
2022-09-15T22:44:06.009Z,19.32
2022-09-15T22:46:33.522Z,19.36
2022-09-15T22:49:00.968Z,19.26
2022-09-15T22:51:28.339Z,19.20
2022-09-15T22:53:57.250Z,19.20
2022-09-15T22:56:26.280Z,19.20
2022-09-15T22:58:54.173Z,19.11
2022-09-15T23:01:30.834Z,19.18
2022-09-15T23:04:02.313Z,19.13
2022-09-15T23:06:32.313Z,19.09
2022-09-15T23:09:03.344Z,19.11
2022-09-15T23:11:33.299Z,19.20
2022-09-15T23:14:01.191Z,19.13
2022-09-15T23:16:30.627Z,19.13
2022-09-15T23:18:58.453Z,19.19
2022-09-15T23:21:25.985Z,19.19
2022-09-15T23:23:54.216Z,19.20
2022-09-15T23:26:23.394Z,19.19
2022-09-15T23:28:50.560Z,19.15
2022-09-15T23:31:18.443Z,19.13
2022-09-15T23:33:46.133Z,19.08
2022-09-15T23:36:15.463Z,19.16
2022-09-15T23:38:44.375Z,19.20
2022-09-15T23:41:12.737Z,19.03
2022-09-15T23:43:40.463Z,18.95
2022-09-15T23:46:07.984Z,18.99
2022-09-15T23:48:35.329Z,18.95
2022-09-15T23:51:02.798Z,18.91
2022-09-15T23:53:30.050Z,18.92
2022-09-15T23:55:57.190Z,18.96
2022-09-15T23:58:24.755Z,19.02
